createdAt,value
2019-04-16T00:00:42.446Z,67.57
2019-04-16T00:01:38.886Z,68.18
2019-04-16T00:02:37.831Z,67.87
2019-04-16T00:03:37.814Z,68.21
2019-04-16T00:04:37.809Z,68.21
2019-04-16T00:05:37.795Z,68.73
2019-04-16T00:06:37.798Z,68.11
2019-04-16T00:07:37.819Z,68.21
2019-04-16T00:08:37.760Z,68.73
2019-04-16T00:09:37.750Z,68.93
2019-04-16T00:10:37.741Z,68.73
2019-04-16T00:11:37.728Z,68.32
2019-04-16T00:12:37.723Z,68.21
2019-04-16T00:13:37.753Z,68.62
2019-04-16T00:14:37.692Z,68.32
2019-04-16T00:15:41.013Z,68.83
2019-04-16T00:16:37.672Z,68.73
2019-04-16T00:17:37.669Z,68.83
2019-04-16T00:18:37.647Z,68.93
2019-04-16T00:19:37.684Z,68.62
2019-04-16T00:20:38.105Z,68.42
2019-04-16T00:21:38.514Z,68.93
2019-04-16T00:22:37.607Z,68.01
2019-04-16T00:23:37.593Z,68.83
2019-04-16T00:24:37.630Z,68.62
2019-04-16T00:25:37.611Z,68.42
2019-04-16T00:26:37.569Z,68.42
2019-04-16T00:27:37.555Z,68.62
2019-04-16T00:28:37.543Z,68.66
2019-04-16T00:29:39.656Z,68.24
2019-04-16T00:30:37.516Z,68.52
2019-04-16T00:31:37.790Z,68.83
2019-04-16T00:32:38.821Z,68.83
2019-04-16T00:33:39.356Z,68.52
2019-04-16T00:34:38.474Z,69.38
2019-04-16T00:35:37.464Z,69.38
2019-04-16T00:36:37.456Z,69.07
2019-04-16T00:37:37.494Z,68.86
2019-04-16T00:38:41.069Z,68.86
2019-04-16T00:39:37.418Z,68.86
2019-04-16T00:40:37.417Z,68.76
2019-04-16T00:41:37.401Z,68.86
2019-04-16T00:42:37.388Z,68.96
2019-04-16T00:43:37.415Z,68.04
2019-04-16T00:44:37.365Z,68.86
2019-04-16T00:45:37.409Z,68.76
2019-04-16T00:46:37.360Z,69.38
2019-04-16T00:47:37.336Z,69.00
2019-04-16T00:48:37.327Z,68.55
2019-04-16T00:49:38.079Z,68.90
2019-04-16T00:50:37.328Z,68.79
2019-04-16T00:51:37.294Z,69.20
2019-04-16T00:52:37.697Z,69.20
2019-04-16T00:53:39.161Z,69.62
2019-04-16T00:54:39.241Z,69.20
2019-04-16T00:55:38.297Z,69.20
2019-04-16T00:56:37.235Z,69.10
2019-04-16T00:57:37.220Z,69.62
2019-04-16T00:58:37.217Z,69.75
2019-04-16T00:59:37.204Z,69.82
2019-04-16T01:00:37.186Z,69.72
2019-04-16T01:01:37.218Z,69.82
2019-04-16T01:02:37.171Z,69.24
2019-04-16T01:03:37.157Z,69.31
2019-04-16T01:04:37.145Z,69.44
2019-04-16T01:05:37.139Z,69.44
2019-04-16T01:06:37.916Z,69.54
2019-04-16T01:07:37.161Z,69.44
2019-04-16T01:08:37.101Z,69.13
2019-04-16T01:09:37.087Z,69.44
2019-04-16T01:10:37.078Z,68.82
2019-04-16T01:11:37.074Z,69.44
2019-04-16T01:12:37.059Z,69.34
2019-04-16T01:13:37.078Z,69.34
2019-04-16T01:14:37.033Z,69.03
2019-04-16T01:15:37.024Z,69.58
2019-04-16T01:16:37.013Z,69.34
2019-04-16T01:17:37.004Z,69.75
2019-04-16T01:18:38.794Z,70.20
2019-04-16T01:19:38.255Z,70.30
2019-04-16T01:20:36.981Z,70.61
2019-04-16T01:21:36.959Z,70.82
2019-04-16T01:22:36.950Z,69.58
2019-04-16T01:23:36.937Z,70.75
2019-04-16T01:24:36.937Z,70.72
2019-04-16T01:25:36.961Z,71.02
2019-04-16T01:26:36.910Z,69.61
2019-04-16T01:27:36.895Z,70.75
2019-04-16T01:28:36.886Z,70.85
2019-04-16T01:29:36.868Z,70.75
2019-04-16T01:30:37.219Z,70.95
2019-04-16T01:31:38.672Z,70.75
2019-04-16T01:32:36.845Z,71.37
2019-04-16T01:33:36.849Z,71.37
2019-04-16T01:34:36.816Z,71.67
2019-04-16T01:35:36.810Z,71.67
2019-04-16T01:36:36.801Z,71.81
2019-04-16T01:37:36.952Z,71.61
2019-04-16T01:38:36.775Z,71.61
2019-04-16T01:39:36.765Z,71.92
2019-04-16T01:40:36.757Z,71.98
2019-04-16T01:41:36.742Z,71.92
2019-04-16T01:42:36.732Z,72.22
2019-04-16T01:43:36.757Z,72.33
2019-04-16T01:44:36.707Z,72.02
2019-04-16T01:45:36.698Z,71.50
2019-04-16T01:46:36.690Z,71.61
2019-04-16T01:47:37.318Z,72.22
2019-04-16T01:48:39.116Z,72.02
2019-04-16T01:49:39.310Z,72.43
2019-04-16T01:50:36.640Z,72.26
2019-04-16T01:51:37.822Z,72.85
2019-04-16T01:52:36.630Z,73.29
2019-04-16T01:53:36.620Z,73.08
2019-04-16T01:54:36.609Z,72.36
2019-04-16T01:55:36.802Z,72.47
2019-04-16T01:56:36.584Z,72.47
2019-04-16T01:57:36.574Z,73.60
2019-04-16T01:58:36.559Z,73.60
2019-04-16T01:59:36.552Z,73.19
2019-04-16T02:00:39.161Z,72.67
2019-04-16T02:01:36.558Z,73.29
2019-04-16T02:02:36.517Z,73.08
2019-04-16T02:03:36.498Z,73.12
2019-04-16T02:04:36.507Z,73.33
2019-04-16T02:05:36.489Z,73.94
2019-04-16T02:06:36.538Z,73.94
2019-04-16T02:07:36.508Z,73.84
2019-04-16T02:08:36.443Z,73.74
2019-04-16T02:09:36.438Z,74.26
2019-04-16T02:10:38.308Z,73.88
2019-04-16T02:11:38.834Z,73.64
2019-04-16T02:12:36.398Z,74.26
2019-04-16T02:13:36.669Z,74.08
2019-04-16T02:14:36.377Z,74.15
2019-04-16T02:15:36.386Z,74.05
2019-04-16T02:16:36.358Z,73.98
2019-04-16T02:17:36.351Z,73.57
2019-04-16T02:18:36.344Z,74.60
2019-04-16T02:19:36.348Z,74.50
2019-04-16T02:20:39.514Z,74.81
2019-04-16T02:21:38.990Z,74.81
2019-04-16T02:22:36.300Z,74.81
2019-04-16T02:23:36.274Z,74.91
2019-04-16T02:24:36.263Z,75.22
2019-04-16T02:25:36.320Z,75.02
2019-04-16T02:26:36.244Z,74.91
2019-04-16T02:27:36.236Z,74.74
2019-04-16T02:28:36.230Z,74.74
2019-04-16T02:29:36.216Z,74.63
2019-04-16T02:30:39.424Z,74.53
2019-04-16T02:31:36.234Z,74.84
2019-04-16T02:32:36.184Z,75.05
2019-04-16T02:33:36.175Z,74.95
2019-04-16T02:34:36.168Z,75.15
2019-04-16T02:35:36.143Z,75.05
2019-04-16T02:36:36.137Z,74.95
2019-04-16T02:37:37.535Z,75.36
2019-04-16T02:38:36.119Z,75.67
2019-04-16T02:39:47.585Z,75.26
2019-04-16T02:40:37.119Z,75.57
2019-04-16T02:41:36.093Z,75.88
2019-04-16T02:42:36.072Z,75.98
2019-04-16T02:43:40.850Z,76.19
2019-04-16T02:44:37.057Z,76.19
2019-04-16T02:45:36.037Z,76.09
2019-04-16T02:46:36.034Z,75.92
2019-04-16T02:47:39.892Z,76.43
2019-04-16T02:48:37.054Z,76.32
2019-04-16T02:49:35.996Z,76.12
2019-04-16T02:50:35.981Z,76.02
2019-04-16T02:51:39.585Z,76.23
2019-04-16T02:52:36.976Z,76.53
2019-04-16T02:53:35.944Z,76.19
2019-04-16T02:54:35.991Z,76.32
2019-04-16T02:55:42.661Z,76.23
2019-04-16T02:56:36.911Z,75.92
2019-04-16T02:57:35.906Z,75.98
2019-04-16T02:58:35.895Z,75.71
2019-04-16T02:59:35.891Z,75.71
2019-04-16T03:00:35.925Z,76.02
2019-04-16T03:01:35.859Z,76.02
2019-04-16T03:02:35.860Z,75.67
2019-04-16T03:03:35.840Z,75.29
2019-04-16T03:04:35.822Z,75.26
2019-04-16T03:05:35.825Z,75.46
2019-04-16T03:06:35.857Z,75.29
2019-04-16T03:07:35.816Z,75.40
2019-04-16T03:08:36.142Z,75.71
2019-04-16T03:09:39.820Z,76.02
2019-04-16T03:10:36.763Z,76.12
2019-04-16T03:11:35.746Z,76.23
2019-04-16T03:12:35.791Z,75.92
2019-04-16T03:13:35.728Z,76.12
2019-04-16T03:14:35.740Z,76.23
2019-04-16T03:15:35.703Z,76.02
2019-04-16T03:16:37.927Z,76.23
2019-04-16T03:17:35.714Z,76.02
2019-04-16T03:18:35.719Z,76.12
2019-04-16T03:19:38.755Z,75.92
2019-04-16T03:20:35.671Z,76.53
2019-04-16T03:21:35.633Z,76.23
2019-04-16T03:22:35.625Z,76.12
2019-04-16T03:23:37.518Z,76.26
2019-04-16T03:24:37.513Z,75.92
2019-04-16T03:25:35.615Z,76.15
2019-04-16T03:26:35.591Z,76.05
2019-04-16T03:27:35.574Z,76.46
2019-04-16T03:28:35.566Z,76.36
2019-04-16T03:29:35.549Z,76.46
2019-04-16T03:30:42.095Z,76.36
2019-04-16T03:31:36.528Z,76.46
2019-04-16T03:32:36.331Z,76.36
2019-04-16T03:33:35.527Z,76.88
2019-04-16T03:34:35.495Z,76.67
2019-04-16T03:35:35.486Z,77.19
2019-04-16T03:36:35.522Z,77.19
2019-04-16T03:37:35.469Z,76.98
2019-04-16T03:38:36.977Z,77.44
2019-04-16T03:39:35.435Z,77.54
2019-04-16T03:40:35.449Z,77.75
2019-04-16T03:41:35.418Z,77.64
2019-04-16T03:42:35.448Z,78.02
2019-04-16T03:43:35.393Z,77.64
2019-04-16T03:44:37.283Z,77.64
2019-04-16T03:45:37.591Z,77.64
2019-04-16T03:46:35.365Z,78.47
2019-04-16T03:47:35.364Z,78.06
2019-04-16T03:48:35.405Z,78.06
2019-04-16T03:49:35.337Z,77.85
2019-04-16T03:50:35.320Z,77.64
2019-04-16T03:51:36.454Z,78.06
2019-04-16T03:52:37.484Z,78.06
2019-04-16T03:53:36.492Z,78.16
2019-04-16T03:54:35.270Z,77.75
2019-04-16T03:55:35.276Z,78.61
2019-04-16T03:56:35.250Z,78.27
2019-04-16T03:57:35.240Z,78.61
2019-04-16T03:58:37.974Z,78.06
2019-04-16T03:59:35.269Z,78.72
2019-04-16T04:00:35.221Z,78.68
2019-04-16T04:01:35.192Z,78.41
2019-04-16T04:02:35.217Z,78.27
2019-04-16T04:03:35.170Z,78.58
2019-04-16T04:04:35.180Z,78.27
2019-04-16T04:05:35.813Z,78.61
2019-04-16T04:06:36.563Z,78.16
2019-04-16T04:07:35.137Z,78.09
2019-04-16T04:08:35.119Z,78.30
2019-04-16T04:09:35.104Z,78.30
2019-04-16T04:10:37.068Z,78.51
2019-04-16T04:11:35.134Z,78.06
2019-04-16T04:12:35.081Z,78.72
2019-04-16T04:13:35.061Z,78.61
2019-04-16T04:14:35.050Z,78.72
2019-04-16T04:15:35.037Z,78.61
2019-04-16T04:16:35.027Z,78.30
2019-04-16T04:17:35.659Z,78.61
2019-04-16T04:18:35.024Z,78.61
2019-04-16T04:19:34.995Z,78.72
2019-04-16T04:20:34.982Z,78.61
2019-04-16T04:21:34.972Z,78.82
2019-04-16T04:22:34.962Z,78.61
2019-04-16T04:23:34.987Z,78.72
2019-04-16T04:24:34.947Z,77.89
2019-04-16T04:25:36.269Z,78.41
2019-04-16T04:26:34.925Z,78.23
2019-04-16T04:27:34.907Z,78.44
2019-04-16T04:28:34.898Z,79.34
2019-04-16T04:29:34.920Z,79.38
2019-04-16T04:30:34.876Z,79.38
2019-04-16T04:31:34.874Z,79.58
2019-04-16T04:32:35.370Z,79.69
2019-04-16T04:33:40.865Z,79.69
2019-04-16T04:34:35.862Z,79.38
2019-04-16T04:35:34.819Z,79.27
2019-04-16T04:36:34.808Z,79.38
2019-04-16T04:37:34.821Z,79.38
2019-04-16T04:38:37.539Z,79.38
2019-04-16T04:39:34.774Z,79.06
2019-04-16T04:40:44.325Z,78.55
2019-04-16T04:41:35.752Z,78.75
2019-04-16T04:42:34.753Z,78.55
2019-04-16T04:43:34.730Z,79.27
2019-04-16T04:44:36.952Z,79.38
2019-04-16T04:45:34.710Z,79.27
2019-04-16T04:46:34.759Z,78.96
2019-04-16T04:47:34.686Z,78.65
2019-04-16T04:48:34.679Z,79.06
2019-04-16T04:49:34.667Z,79.38
2019-04-16T04:50:35.398Z,79.69
2019-04-16T04:51:36.448Z,79.38
2019-04-16T04:52:35.660Z,79.69
2019-04-16T04:53:34.641Z,79.79
2019-04-16T04:54:34.609Z,79.38
2019-04-16T04:55:34.615Z,79.38
2019-04-16T04:56:34.592Z,79.69
2019-04-16T04:57:34.576Z,79.38
2019-04-16T04:58:34.888Z,78.86
2019-04-16T04:59:36.785Z,79.38
2019-04-16T05:00:34.545Z,79.48
2019-04-16T05:01:34.534Z,79.27
2019-04-16T05:02:34.536Z,78.96
2019-04-16T05:03:34.520Z,78.86
2019-04-16T05:04:34.543Z,78.55
2019-04-16T05:05:34.487Z,78.86
2019-04-16T05:06:34.477Z,78.55
2019-04-16T05:07:34.467Z,78.55
2019-04-16T05:08:34.500Z,78.86
2019-04-16T05:09:36.403Z,79.03
2019-04-16T05:10:36.903Z,79.13
2019-04-16T05:11:35.424Z,79.24
2019-04-16T05:12:34.413Z,78.82
2019-04-16T05:13:34.406Z,77.99
2019-04-16T05:14:34.406Z,78.09
2019-04-16T05:15:34.377Z,77.78
2019-04-16T05:16:35.143Z,77.47
2019-04-16T05:17:35.477Z,76.95
2019-04-16T05:18:34.343Z,77.02
2019-04-16T05:19:34.341Z,76.71
2019-04-16T05:20:34.340Z,76.92
2019-04-16T05:21:34.310Z,76.92
2019-04-16T05:22:34.345Z,76.81
2019-04-16T05:23:34.289Z,77.12
2019-04-16T05:24:37.422Z,76.92
2019-04-16T05:25:34.519Z,77.12
2019-04-16T05:26:36.587Z,76.81
2019-04-16T05:27:34.258Z,76.81
2019-04-16T05:28:34.274Z,76.57
2019-04-16T05:29:34.222Z,76.46
2019-04-16T05:30:34.211Z,76.36
2019-04-16T05:31:34.201Z,76.15
2019-04-16T05:32:34.335Z,76.05
2019-04-16T05:33:34.534Z,76.05
2019-04-16T05:34:34.568Z,75.92
2019-04-16T05:35:34.156Z,75.71
2019-04-16T05:36:34.148Z,75.88
2019-04-16T05:37:34.159Z,76.02
2019-04-16T05:38:34.145Z,75.92
2019-04-16T05:39:34.114Z,76.32
2019-04-16T05:40:35.255Z,75.81
2019-04-16T05:41:34.094Z,75.98
2019-04-16T05:42:34.079Z,76.19
2019-04-16T05:43:34.068Z,75.67
2019-04-16T05:44:34.239Z,75.67
2019-04-16T05:45:34.429Z,75.57
2019-04-16T05:46:34.072Z,75.22
2019-04-16T05:47:34.024Z,75.12
2019-04-16T05:48:34.018Z,74.40
2019-04-16T05:49:34.000Z,74.40
2019-04-16T05:50:34.003Z,74.36
2019-04-16T05:51:33.988Z,74.15
2019-04-16T05:52:35.819Z,74.67
2019-04-16T05:53:33.958Z,74.36
2019-04-16T05:54:33.948Z,74.02
2019-04-16T05:55:33.937Z,73.50
2019-04-16T05:56:33.945Z,72.88
2019-04-16T05:57:33.917Z,72.95
2019-04-16T05:58:33.933Z,72.53
2019-04-16T05:59:34.554Z,71.40
2019-04-16T06:00:33.882Z,71.37
2019-04-16T06:01:33.871Z,71.57
2019-04-16T06:02:33.866Z,71.26
2019-04-16T06:03:33.848Z,70.51
2019-04-16T06:04:33.898Z,70.20
2019-04-16T06:05:33.830Z,70.09
2019-04-16T06:06:33.816Z,69.54
2019-04-16T06:07:37.771Z,70.06
2019-04-16T06:08:33.866Z,69.82
2019-04-16T06:09:33.803Z,69.62
2019-04-16T06:10:33.824Z,69.72
2019-04-16T06:11:36.552Z,69.72
2019-04-16T06:12:33.751Z,69.17
2019-04-16T06:13:33.740Z,68.55
2019-04-16T06:14:33.728Z,68.62
2019-04-16T06:15:35.846Z,66.36
2019-04-16T06:16:33.749Z,65.92
2019-04-16T06:17:33.696Z,65.58
2019-04-16T06:18:37.080Z,64.44
2019-04-16T06:19:33.673Z,64.51
2019-04-16T06:20:33.733Z,63.67
2019-04-16T06:21:33.651Z,63.35
2019-04-16T06:22:33.688Z,64.39
2019-04-16T06:23:33.675Z,63.22
2019-04-16T06:24:35.856Z,63.25
2019-04-16T06:25:33.624Z,63.32
2019-04-16T06:26:33.601Z,62.19
2019-04-16T06:27:33.627Z,62.27
2019-04-16T06:28:33.626Z,62.06
2019-04-16T06:29:33.562Z,62.34
2019-04-16T06:30:34.110Z,60.80
2019-04-16T06:31:36.301Z,61.42
2019-04-16T06:32:34.548Z,60.57
2019-04-16T06:33:33.521Z,60.47
2019-04-16T06:34:33.539Z,60.05
2019-04-16T06:35:43.209Z,60.85
2019-04-16T06:36:34.498Z,61.05
2019-04-16T06:37:33.473Z,60.03
2019-04-16T06:38:33.467Z,60.00
2019-04-16T06:39:33.468Z,60.41
2019-04-16T06:40:33.743Z,59.08
2019-04-16T06:41:41.668Z,59.59
2019-04-16T06:42:34.416Z,58.95
2019-04-16T06:43:33.415Z,58.23
2019-04-16T06:44:35.002Z,57.31
2019-04-16T06:45:36.935Z,58.61
2019-04-16T06:46:33.433Z,58.10
2019-04-16T06:47:33.367Z,57.48
2019-04-16T06:48:33.350Z,56.56
2019-04-16T06:49:34.614Z,56.97
2019-04-16T06:50:39.587Z,57.69
2019-04-16T06:51:34.366Z,57.28
2019-04-16T06:52:33.305Z,56.26
2019-04-16T06:53:33.334Z,57.76
2019-04-16T06:54:33.291Z,56.02
2019-04-16T06:55:36.086Z,55.92
2019-04-16T06:56:33.262Z,56.23
2019-04-16T06:57:33.441Z,56.84
2019-04-16T06:58:49.870Z,56.74
2019-04-16T06:59:34.259Z,55.69
2019-04-16T07:00:34.995Z,55.18
2019-04-16T07:01:36.752Z,56.00
2019-04-16T07:02:37.286Z,56.99
2019-04-16T07:03:33.250Z,56.28
2019-04-16T07:04:33.173Z,56.38
2019-04-16T07:05:33.344Z,54.92
2019-04-16T07:06:36.036Z,54.54
2019-04-16T07:07:39.850Z,55.43
2019-04-16T07:08:38.114Z,55.02
2019-04-16T07:09:41.303Z,54.41
2019-04-16T07:10:44.064Z,54.18
2019-04-16T07:11:34.093Z,53.88
2019-04-16T07:12:37.982Z,53.28
2019-04-16T07:13:34.077Z,54.28
2019-04-16T07:14:35.965Z,54.08
2019-04-16T07:15:33.051Z,54.28
2019-04-16T07:16:33.039Z,53.36
2019-04-16T07:17:34.425Z,53.44
2019-04-16T07:18:35.597Z,54.57
2019-04-16T07:19:34.052Z,53.85
2019-04-16T07:20:33.001Z,53.34
2019-04-16T07:21:32.985Z,53.21
2019-04-16T07:22:32.973Z,52.80
2019-04-16T07:23:33.062Z,52.60
2019-04-16T07:24:36.596Z,53.52
2019-04-16T07:25:39.758Z,52.09
2019-04-16T07:26:34.075Z,52.70
2019-04-16T07:27:37.847Z,52.27
2019-04-16T07:28:33.937Z,52.37
2019-04-16T07:29:33.442Z,53.29
2019-04-16T07:30:38.689Z,52.98
2019-04-16T07:31:34.696Z,51.73
2019-04-16T07:32:32.901Z,52.45
2019-04-16T07:33:32.852Z,52.25
2019-04-16T07:34:32.843Z,52.34
2019-04-16T07:35:32.833Z,52.22
2019-04-16T07:36:32.826Z,52.22
2019-04-16T07:37:33.755Z,52.53
2019-04-16T07:38:35.201Z,51.61
2019-04-16T07:39:36.869Z,52.22
2019-04-16T07:40:33.804Z,52.32
2019-04-16T07:41:32.765Z,52.53
2019-04-16T07:42:32.753Z,52.32
2019-04-16T07:43:32.775Z,51.20
2019-04-16T07:44:32.776Z,51.30
2019-04-16T07:45:32.811Z,50.79
2019-04-16T07:46:32.709Z,51.53
2019-04-16T07:47:32.702Z,50.51
2019-04-16T07:48:33.058Z,50.99
2019-04-16T07:49:32.722Z,51.84
2019-04-16T07:50:33.314Z,50.71
2019-04-16T07:51:35.843Z,51.20
2019-04-16T07:52:32.644Z,51.51
2019-04-16T07:53:32.667Z,51.71
2019-04-16T07:54:32.616Z,52.20
2019-04-16T07:55:32.655Z,51.58
2019-04-16T07:56:32.603Z,51.97
2019-04-16T07:57:32.588Z,50.54
2019-04-16T07:58:32.582Z,51.46
2019-04-16T07:59:33.009Z,50.64
2019-04-16T08:00:32.549Z,50.23
2019-04-16T08:01:32.589Z,50.64
2019-04-16T08:02:32.526Z,50.54
2019-04-16T08:03:32.514Z,50.54
2019-04-16T08:04:35.534Z,50.44
2019-04-16T08:05:32.492Z,50.54
2019-04-16T08:06:32.480Z,51.35
2019-04-16T08:07:32.507Z,50.54
2019-04-16T08:08:32.460Z,50.82
2019-04-16T08:09:33.780Z,50.64
2019-04-16T08:10:32.504Z,50.42
2019-04-16T08:11:32.423Z,50.82
2019-04-16T08:12:32.421Z,50.62
2019-04-16T08:13:33.602Z,50.21
2019-04-16T08:14:32.388Z,50.31
2019-04-16T08:15:32.392Z,50.72
2019-04-16T08:16:46.311Z,50.82
2019-04-16T08:17:33.360Z,50.72
2019-04-16T08:18:32.354Z,50.31
2019-04-16T08:19:37.157Z,50.70
2019-04-16T08:20:33.398Z,50.29
2019-04-16T08:21:32.319Z,50.39
2019-04-16T08:22:32.298Z,50.80
2019-04-16T08:23:32.286Z,50.80
2019-04-16T08:24:32.287Z,50.39
2019-04-16T08:25:34.025Z,50.09
2019-04-16T08:26:32.253Z,50.47
2019-04-16T08:27:32.244Z,50.16
2019-04-16T08:28:32.229Z,49.58
2019-04-16T08:29:32.220Z,50.16
2019-04-16T08:30:39.029Z,51.08
2019-04-16T08:31:33.386Z,50.24
2019-04-16T08:32:32.185Z,50.65
2019-04-16T08:33:32.175Z,50.52
2019-04-16T08:34:32.191Z,50.52
2019-04-16T08:35:32.161Z,50.01
2019-04-16T08:36:32.147Z,50.01
2019-04-16T08:37:32.238Z,49.28
2019-04-16T08:38:34.894Z,49.30
2019-04-16T08:39:32.108Z,49.20
2019-04-16T08:40:32.101Z,48.87
2019-04-16T08:41:32.106Z,48.67
2019-04-16T08:42:43.915Z,49.18
2019-04-16T08:43:33.091Z,48.57
2019-04-16T08:44:35.325Z,47.25
2019-04-16T08:45:32.038Z,47.66
2019-04-16T08:46:32.041Z,48.14
2019-04-16T08:47:32.026Z,47.33
2019-04-16T08:48:32.011Z,48.34
2019-04-16T08:49:32.035Z,48.44
2019-04-16T08:50:31.982Z,47.81
2019-04-16T08:51:36.970Z,48.11
2019-04-16T08:52:32.973Z,47.20
2019-04-16T08:53:31.948Z,47.71
2019-04-16T08:54:31.939Z,47.20
2019-04-16T08:55:31.986Z,47.61
2019-04-16T08:56:31.914Z,47.38
2019-04-16T08:57:32.804Z,46.37
2019-04-16T08:58:31.893Z,46.88
2019-04-16T08:59:31.894Z,46.88
2019-04-16T09:00:31.881Z,47.08
2019-04-16T09:01:31.891Z,45.94
2019-04-16T09:02:31.851Z,46.37
2019-04-16T09:03:31.846Z,46.14
2019-04-16T09:04:34.623Z,46.45
2019-04-16T09:05:31.817Z,46.33
2019-04-16T09:06:31.826Z,46.94
2019-04-16T09:07:31.848Z,47.03
2019-04-16T09:08:31.783Z,47.02
2019-04-16T09:09:31.773Z,46.71
2019-04-16T09:10:31.771Z,46.30
2019-04-16T09:11:35.077Z,46.30
2019-04-16T09:12:31.866Z,46.89
2019-04-16T09:13:31.762Z,45.87
2019-04-16T09:14:31.721Z,46.08
2019-04-16T09:15:31.704Z,46.38
2019-04-16T09:16:31.694Z,46.18
2019-04-16T09:17:31.682Z,46.18
2019-04-16T09:18:31.671Z,45.35
2019-04-16T09:19:31.722Z,46.36
2019-04-16T09:20:31.649Z,45.04
2019-04-16T09:21:31.641Z,46.06
2019-04-16T09:22:31.627Z,46.36
2019-04-16T09:23:31.618Z,46.67
2019-04-16T09:24:31.606Z,46.87
2019-04-16T09:25:31.641Z,45.96
2019-04-16T09:26:31.582Z,46.26
2019-04-16T09:27:34.192Z,46.06
2019-04-16T09:28:32.117Z,46.46
2019-04-16T09:29:31.551Z,45.35
2019-04-16T09:30:31.543Z,45.15
2019-04-16T09:31:31.583Z,46.28
2019-04-16T09:32:31.517Z,46.16
2019-04-16T09:33:33.565Z,46.06
2019-04-16T09:34:31.495Z,45.65
2019-04-16T09:35:31.485Z,46.14
2019-04-16T09:36:31.474Z,46.54
2019-04-16T09:37:31.518Z,45.61
2019-04-16T09:38:31.450Z,45.10
2019-04-16T09:39:31.449Z,45.25
2019-04-16T09:40:31.431Z,46.26
2019-04-16T09:41:31.418Z,46.16
2019-04-16T09:42:31.411Z,46.28
2019-04-16T09:43:31.450Z,45.78
2019-04-16T09:44:35.027Z,46.08
2019-04-16T09:45:33.874Z,46.48
2019-04-16T09:46:50.330Z,46.26
2019-04-16T09:47:33.359Z,45.87
2019-04-16T09:48:34.383Z,46.08
2019-04-16T09:49:34.348Z,46.38
2019-04-16T09:50:32.380Z,46.46
2019-04-16T09:51:31.315Z,46.16
2019-04-16T09:52:31.298Z,46.69
2019-04-16T09:53:34.143Z,46.38
2019-04-16T09:54:31.272Z,46.38
2019-04-16T09:55:31.357Z,46.79
2019-04-16T09:56:31.250Z,48.08
2019-04-16T09:57:32.381Z,47.47
2019-04-16T09:58:31.279Z,47.07
2019-04-16T09:59:31.293Z,47.07
2019-04-16T10:00:31.222Z,46.95
2019-04-16T10:01:31.250Z,47.35
2019-04-16T10:02:31.190Z,46.62
2019-04-16T10:03:31.189Z,47.20
2019-04-16T10:04:31.160Z,45.08
2019-04-16T10:05:31.150Z,46.30
2019-04-16T10:06:31.138Z,45.37
2019-04-16T10:07:31.179Z,45.47
2019-04-16T10:08:31.126Z,45.25
2019-04-16T10:09:31.162Z,46.15
2019-04-16T10:10:31.106Z,45.45
2019-04-16T10:11:32.761Z,45.34
2019-04-16T10:12:31.069Z,45.32
2019-04-16T10:13:35.770Z,45.54
2019-04-16T10:14:32.047Z,44.92
2019-04-16T10:15:31.065Z,45.73
2019-04-16T10:16:31.028Z,44.92
2019-04-16T10:17:31.016Z,45.32
2019-04-16T10:18:34.818Z,45.73
2019-04-16T10:19:31.068Z,45.22
2019-04-16T10:20:30.984Z,44.31
2019-04-16T10:21:31.006Z,45.12
2019-04-16T10:22:30.988Z,46.23
2019-04-16T10:23:30.949Z,46.11
2019-04-16T10:24:30.958Z,45.20
2019-04-16T10:25:33.643Z,44.90
2019-04-16T10:26:30.969Z,44.37
2019-04-16T10:27:32.464Z,45.48
2019-04-16T10:28:30.921Z,44.78
2019-04-16T10:29:30.885Z,44.27
2019-04-16T10:30:30.879Z,44.37
2019-04-16T10:31:30.893Z,45.68
2019-04-16T10:32:30.864Z,44.07
2019-04-16T10:33:30.855Z,44.37
2019-04-16T10:34:30.845Z,44.37
2019-04-16T10:35:30.824Z,44.67
2019-04-16T10:36:30.878Z,44.17
2019-04-16T10:37:30.841Z,45.07
2019-04-16T10:38:30.795Z,45.76
2019-04-16T10:39:30.782Z,45.26
2019-04-16T10:40:30.766Z,44.95
2019-04-16T10:41:30.785Z,44.55
2019-04-16T10:42:30.756Z,43.82
2019-04-16T10:43:43.870Z,43.42
2019-04-16T10:44:31.711Z,44.63
2019-04-16T10:45:30.736Z,44.33
2019-04-16T10:46:30.706Z,43.82
2019-04-16T10:47:30.716Z,45.24
2019-04-16T10:48:30.690Z,44.61
2019-04-16T10:49:30.705Z,44.43
2019-04-16T10:50:30.644Z,44.63
2019-04-16T10:51:30.651Z,44.63
2019-04-16T10:52:30.643Z,44.63
2019-04-16T10:53:30.638Z,44.23
2019-04-16T10:54:30.621Z,45.34
2019-04-16T10:55:30.648Z,45.64
2019-04-16T10:56:30.577Z,45.32
2019-04-16T10:57:30.602Z,45.01
2019-04-16T10:58:30.554Z,44.81
2019-04-16T10:59:30.582Z,44.49
2019-04-16T11:00:30.547Z,44.21
2019-04-16T11:01:34.772Z,44.01
2019-04-16T11:02:30.510Z,44.33
2019-04-16T11:03:34.456Z,44.81
2019-04-16T11:04:30.520Z,45.39
2019-04-16T11:05:30.519Z,44.79
2019-04-16T11:06:30.466Z,44.59
2019-04-16T11:07:30.486Z,44.97
2019-04-16T11:08:30.475Z,44.09
2019-04-16T11:09:30.463Z,43.99
2019-04-16T11:10:30.427Z,44.29
2019-04-16T11:11:30.463Z,45.19
2019-04-16T11:12:30.430Z,45.07
2019-04-16T11:13:30.423Z,44.97
2019-04-16T11:14:30.379Z,44.95
2019-04-16T11:15:30.369Z,44.45
2019-04-16T11:16:30.356Z,43.52
2019-04-16T11:17:30.386Z,43.64
2019-04-16T11:18:30.349Z,42.61
2019-04-16T11:19:30.379Z,43.62
2019-04-16T11:20:30.313Z,42.41
2019-04-16T11:21:30.339Z,42.92
2019-04-16T11:22:30.291Z,43.20
2019-04-16T11:23:30.291Z,43.00
2019-04-16T11:24:30.333Z,43.00
2019-04-16T11:25:30.284Z,43.40
2019-04-16T11:26:30.245Z,43.60
2019-04-16T11:27:30.234Z,43.10
2019-04-16T11:28:30.224Z,45.29
2019-04-16T11:29:30.249Z,43.78
2019-04-16T11:30:30.229Z,42.96
2019-04-16T11:31:30.264Z,41.93
2019-04-16T11:32:30.215Z,43.54
2019-04-16T11:33:30.194Z,42.24
2019-04-16T11:34:30.157Z,41.43
2019-04-16T11:35:30.146Z,41.33
2019-04-16T11:36:30.923Z,41.43
2019-04-16T11:37:34.471Z,41.53
2019-04-16T11:38:31.147Z,41.53
2019-04-16T11:39:30.097Z,41.71
2019-04-16T11:40:30.085Z,41.41
2019-04-16T11:41:30.076Z,42.11
2019-04-16T11:42:30.103Z,40.11
2019-04-16T11:43:30.086Z,41.19
2019-04-16T11:44:30.063Z,40.29
2019-04-16T11:45:30.033Z,40.09
2019-04-16T11:46:30.030Z,40.99
2019-04-16T11:47:33.830Z,39.79
2019-04-16T11:48:30.015Z,40.29
2019-04-16T11:49:30.066Z,41.38
2019-04-16T11:50:30.005Z,41.27
2019-04-16T11:51:29.967Z,39.27
2019-04-16T11:52:29.992Z,40.27
2019-04-16T11:53:29.968Z,39.47
2019-04-16T11:54:29.949Z,39.47
2019-04-16T11:55:29.993Z,40.27
2019-04-16T11:56:29.916Z,38.87
2019-04-16T11:57:33.341Z,39.85
2019-04-16T11:58:29.984Z,38.87
2019-04-16T11:59:29.915Z,39.27
2019-04-16T12:00:29.890Z,40.05
2019-04-16T12:01:30.012Z,40.05
2019-04-16T12:02:29.868Z,39.25
2019-04-16T12:03:34.969Z,38.33
2019-04-16T12:04:30.829Z,39.91
2019-04-16T12:05:29.815Z,38.29
2019-04-16T12:06:29.809Z,38.79
2019-04-16T12:07:29.841Z,38.20
2019-04-16T12:08:29.832Z,38.31
2019-04-16T12:09:29.771Z,38.61
2019-04-16T12:10:29.761Z,40.19
2019-04-16T12:11:29.793Z,38.78
2019-04-16T12:12:29.750Z,38.66
2019-04-16T12:13:29.795Z,36.78
2019-04-16T12:14:34.364Z,37.88
2019-04-16T12:15:30.747Z,38.04
2019-04-16T12:16:29.696Z,37.92
2019-04-16T12:17:29.686Z,36.61
2019-04-16T12:18:31.901Z,36.93
2019-04-16T12:19:29.692Z,35.11
2019-04-16T12:20:29.685Z,34.69
2019-04-16T12:21:29.673Z,34.88
2019-04-16T12:22:29.633Z,36.37
2019-04-16T12:23:29.693Z,36.49
2019-04-16T12:24:29.648Z,36.63
2019-04-16T12:25:30.021Z,37.66
2019-04-16T12:26:29.630Z,37.56
2019-04-16T12:27:29.590Z,37.14
2019-04-16T12:28:29.568Z,37.54
2019-04-16T12:29:29.568Z,36.79
2019-04-16T12:30:29.588Z,36.51
2019-04-16T12:31:29.607Z,36.91
2019-04-16T12:32:29.556Z,36.49
2019-04-16T12:33:29.523Z,38.20
2019-04-16T12:34:29.516Z,36.80
2019-04-16T12:35:31.037Z,36.79
2019-04-16T12:36:29.499Z,36.69
2019-04-16T12:37:29.502Z,36.21
2019-04-16T12:38:29.557Z,36.34
2019-04-16T12:39:29.477Z,37.56
2019-04-16T12:40:29.465Z,38.07
2019-04-16T12:41:29.476Z,37.71
2019-04-16T12:42:29.430Z,38.73
2019-04-16T12:43:29.457Z,38.93
2019-04-16T12:44:44.100Z,38.85
2019-04-16T12:45:30.394Z,38.65
2019-04-16T12:46:29.420Z,39.05
2019-04-16T12:47:29.432Z,38.85
2019-04-16T12:48:29.461Z,39.85
2019-04-16T12:49:29.416Z,38.85
2019-04-16T12:50:29.331Z,38.35
2019-04-16T12:51:29.333Z,39.07
2019-04-16T12:52:29.311Z,39.49